RYR156P EICK-EGPH
Flight info
| Callsign | RYR156P |
|---|---|
| Flight time | 1h 10m |
| Altitude | 35000 |
| Route | TISMO1S TISMO DCT ROTEV DCT GOTNA DCT BLACA/N0365F250 P600 TUNSO |
| Aircraft | B738/M-SDE2E3FGHIRWXY/LB1 |
Departure
| Time | 2026-04-24 15:55 |
|---|---|
| Airport | Cork International Airport (EICK) |
Arrival
| Time | 2026-04-24 17:05 |
|---|---|
| Airport | Edinburgh Airport (EGPH) |
| Time | Latitude | Longitude | Altitude | Speed | Heading |
|---|---|---|---|---|---|
| 2026-04-24 15:29 | 51.84799 | -8.49033 | 499 ft | 0 kts | 70° |
| 2026-04-24 15:47 | 51.84795 | -8.49052 | 499 ft | 2 kts | 70° |
| 2026-04-24 15:47 | 51.84790 | -8.49075 | 498 ft | 2 kts | 70° |
| 2026-04-24 15:47 | 51.84785 | -8.49097 | 498 ft | 2 kts | 70° |
| 2026-04-24 15:47 | 51.84779 | -8.49120 | 497 ft | 2 kts | 70° |
| 2026-04-24 15:48 | 51.84774 | -8.49143 | 497 ft | 2 kts | 70° |
| 2026-04-24 15:48 | 51.84769 | -8.49166 | 497 ft | 2 kts | 81° |
| 2026-04-24 15:48 | 51.84764 | -8.49187 | 496 ft | 2 kts | 40° |
| 2026-04-24 15:48 | 51.84750 | -8.49196 | 496 ft | 2 kts | 1° |
| 2026-04-24 15:49 | 51.84737 | -8.49189 | 496 ft | 2 kts | 333° |
| 2026-04-24 15:49 | 51.84723 | -8.49181 | 496 ft | 1 kts | 342° |
| 2026-04-24 15:49 | 51.84719 | -8.49179 | 496 ft | 0 kts | 341° |
| 2026-04-24 15:51 | 51.84728 | -8.49184 | 496 ft | 4 kts | 340° |
| 2026-04-24 15:51 | 51.84785 | -8.49212 | 496 ft | 12 kts | 349° |
| 2026-04-24 15:51 | 51.84875 | -8.49245 | 497 ft | 14 kts | 341° |
| 2026-04-24 15:51 | 51.84980 | -8.49296 | 497 ft | 17 kts | 343° |
| 2026-04-24 15:52 | 51.85091 | -8.49360 | 497 ft | 15 kts | 341° |
| 2026-04-24 15:52 | 51.85143 | -8.49437 | 497 ft | 10 kts | 268° |
| 2026-04-24 15:52 | 51.85116 | -8.49499 | 496 ft | 0 kts | 205° |
| 2026-04-24 15:52 | 51.85104 | -8.49508 | 496 ft | 6 kts | 205° |
| 2026-04-24 15:53 | 51.85034 | -8.49563 | 494 ft | 10 kts | 218° |
| 2026-04-24 15:53 | 51.85001 | -8.49625 | 494 ft | 4 kts | 171° |
| 2026-04-24 15:53 | 51.84990 | -8.49621 | 494 ft | 0 kts | 160° |
| 2026-04-24 15:54 | 51.84956 | -8.49600 | 494 ft | 28 kts | 160° |
| 2026-04-24 15:54 | 51.84516 | -8.49337 | 492 ft | 103 kts | 160° |
| 2026-04-24 15:54 | 51.83653 | -8.48820 | 479 ft | 161 kts | 157° |
| 2026-04-24 15:54 | 51.82563 | -8.48173 | 1089 ft | 167 kts | 155° |
| 2026-04-24 15:55 | 51.81505 | -8.47601 | 1995 ft | 164 kts | 158° |
| 2026-04-24 15:55 | 51.80460 | -8.47088 | 2741 ft | 157 kts | 158° |
| 2026-04-24 15:55 | 51.79560 | -8.46083 | 3099 ft | 169 kts | 122° |
| 2026-04-24 15:55 | 51.79195 | -8.44228 | 3586 ft | 180 kts | 101° |
| 2026-04-24 15:56 | 51.79295 | -8.42194 | 4094 ft | 194 kts | 76° |
| 2026-04-24 15:56 | 51.80150 | -8.40358 | 4470 ft | 222 kts | 44° |
| 2026-04-24 15:56 | 51.81459 | -8.38943 | 4967 ft | 232 kts | 39° |
| 2026-04-24 15:56 | 51.82890 | -8.37419 | 5217 ft | 256 kts | 40° |
| 2026-04-24 15:57 | 51.84365 | -8.35751 | 5680 ft | 269 kts | 41° |
| 2026-04-24 15:57 | 51.85915 | -8.33945 | 6237 ft | 278 kts | 41° |
| 2026-04-24 15:57 | 51.87484 | -8.32105 | 6932 ft | 283 kts | 40° |
| 2026-04-24 15:57 | 51.89059 | -8.30252 | 7629 ft | 287 kts | 40° |
| 2026-04-24 15:58 | 51.90682 | -8.28344 | 8345 ft | 291 kts | 40° |
| 2026-04-24 15:58 | 51.92326 | -8.26409 | 9044 ft | 295 kts | 40° |
| 2026-04-24 15:58 | 51.93977 | -8.24465 | 9767 ft | 299 kts | 40° |
| 2026-04-24 15:58 | 51.95674 | -8.22468 | 10486 ft | 304 kts | 40° |
| 2026-04-24 15:59 | 51.97413 | -8.20415 | 10944 ft | 318 kts | 40° |
| 2026-04-24 15:59 | 51.99230 | -8.18263 | 11411 ft | 332 kts | 40° |
| 2026-04-24 15:59 | 52.01115 | -8.16031 | 11878 ft | 345 kts | 39° |
| 2026-04-24 15:59 | 52.03070 | -8.13723 | 12613 ft | 350 kts | 39° |
| 2026-04-24 16:00 | 52.05019 | -8.11423 | 13435 ft | 351 kts | 39° |
| 2026-04-24 16:00 | 52.07020 | -8.09055 | 14164 ft | 356 kts | 39° |
| 2026-04-24 16:00 | 52.09020 | -8.06685 | 14882 ft | 362 kts | 39° |
| 2026-04-24 16:00 | 52.11047 | -8.04282 | 15642 ft | 365 kts | 39° |
| 2026-04-24 16:01 | 52.13104 | -8.01841 | 16333 ft | 370 kts | 39° |
| 2026-04-24 16:01 | 52.15243 | -7.99471 | 17099 ft | 374 kts | 36° |
| 2026-04-24 16:01 | 52.17464 | -7.97233 | 17787 ft | 378 kts | 33° |
| 2026-04-24 16:01 | 52.19742 | -7.95044 | 18495 ft | 382 kts | 33° |
| 2026-04-24 16:02 | 52.22028 | -7.92870 | 19107 ft | 387 kts | 33° |
| 2026-04-24 16:02 | 52.24350 | -7.90647 | 19762 ft | 390 kts | 33° |
| 2026-04-24 16:02 | 52.26673 | -7.88396 | 20353 ft | 395 kts | 33° |
| 2026-04-24 16:02 | 52.29033 | -7.86090 | 20975 ft | 398 kts | 33° |
| 2026-04-24 16:03 | 52.31398 | -7.83765 | 21589 ft | 401 kts | 33° |
| 2026-04-24 16:03 | 52.33813 | -7.81385 | 22154 ft | 405 kts | 33° |
| 2026-04-24 16:03 | 52.36218 | -7.79013 | 22702 ft | 408 kts | 33° |
| 2026-04-24 16:03 | 52.38630 | -7.76627 | 23231 ft | 412 kts | 33° |
| 2026-04-24 16:04 | 52.41105 | -7.74173 | 23787 ft | 415 kts | 33° |
| 2026-04-24 16:04 | 52.43567 | -7.71728 | 24287 ft | 419 kts | 33° |
| 2026-04-24 16:04 | 52.46064 | -7.69246 | 24759 ft | 424 kts | 33° |
| 2026-04-24 16:04 | 52.48574 | -7.66750 | 25246 ft | 428 kts | 33° |
| 2026-04-24 16:05 | 52.53699 | -7.61650 | 26166 ft | 437 kts | 32° |
| 2026-04-24 16:05 | 52.56280 | -7.59076 | 26679 ft | 439 kts | 32° |
| 2026-04-24 16:06 | 52.61536 | -7.53821 | 27579 ft | 446 kts | 32° |
| 2026-04-24 16:06 | 52.64194 | -7.51157 | 28028 ft | 449 kts | 32° |
| 2026-04-24 16:06 | 52.69545 | -7.45786 | 28886 ft | 456 kts | 31° |
| 2026-04-24 16:07 | 52.72255 | -7.43058 | 29351 ft | 459 kts | 31° |
| 2026-04-24 16:07 | 52.74990 | -7.40304 | 29800 ft | 461 kts | 31° |
| 2026-04-24 16:07 | 52.80450 | -7.34788 | 31115 ft | 455 kts | 32° |
| 2026-04-24 16:08 | 52.83128 | -7.32076 | 31805 ft | 451 kts | 32° |
| 2026-04-24 16:08 | 52.88491 | -7.26630 | 32940 ft | 448 kts | 32° |
| 2026-04-24 16:09 | 52.93792 | -7.21229 | 34118 ft | 442 kts | 32° |
| 2026-04-24 16:09 | 52.96394 | -7.18576 | 34598 ft | 441 kts | 32° |
| 2026-04-24 16:09 | 52.98999 | -7.15920 | 35053 ft | 438 kts | 32° |
| 2026-04-24 16:09 | 53.01592 | -7.13268 | 35192 ft | 442 kts | 32° |
| 2026-04-24 16:11 | 53.14678 | -6.99828 | 35216 ft | 435 kts | 32° |
| 2026-04-24 16:11 | 53.19864 | -6.94478 | 35222 ft | 437 kts | 32° |
| 2026-04-24 16:12 | 53.27576 | -6.86496 | 35222 ft | 436 kts | 32° |
| 2026-04-24 16:13 | 53.35286 | -6.78487 | 35229 ft | 436 kts | 32° |
| 2026-04-24 16:14 | 53.45520 | -6.67787 | 35238 ft | 435 kts | 32° |
| 2026-04-24 16:14 | 53.53218 | -6.59694 | 35237 ft | 433 kts | 32° |
| 2026-04-24 16:15 | 53.60833 | -6.51659 | 35239 ft | 433 kts | 32° |
| 2026-04-24 16:16 | 53.68474 | -6.43558 | 35236 ft | 433 kts | 31° |
| 2026-04-24 16:17 | 53.81191 | -6.30003 | 35240 ft | 431 kts | 32° |
| 2026-04-24 16:18 | 53.91268 | -6.19191 | 35250 ft | 430 kts | 32° |
| 2026-04-24 16:19 | 53.98790 | -6.11082 | 35252 ft | 428 kts | 32° |
| 2026-04-24 16:20 | 54.06534 | -6.03408 | 35255 ft | 430 kts | 26° |
| 2026-04-24 16:20 | 54.14595 | -5.96912 | 35247 ft | 428 kts | 24° |
| 2026-04-24 16:21 | 54.22654 | -5.90424 | 35246 ft | 428 kts | 25° |
| 2026-04-24 16:22 | 54.27974 | -5.86057 | 34795 ft | 419 kts | 25° |
| 2026-04-24 16:22 | 54.33134 | -5.81783 | 34070 ft | 408 kts | 25° |
| 2026-04-24 16:22 | 54.35654 | -5.79696 | 33587 ft | 406 kts | 25° |
| 2026-04-24 16:23 | 54.38178 | -5.77606 | 33092 ft | 404 kts | 25° |
| 2026-04-24 16:23 | 54.40691 | -5.75521 | 32605 ft | 401 kts | 25° |
| 2026-04-24 16:23 | 54.43185 | -5.73445 | 32112 ft | 399 kts | 25° |
| 2026-04-24 16:24 | 54.48150 | -5.69307 | 31131 ft | 394 kts | 25° |
| 2026-04-24 16:24 | 54.50590 | -5.67271 | 30646 ft | 392 kts | 25° |
| 2026-04-24 16:24 | 54.53013 | -5.65246 | 30174 ft | 389 kts | 25° |
| 2026-04-24 16:24 | 54.55426 | -5.63226 | 29701 ft | 387 kts | 25° |
| 2026-04-24 16:25 | 54.57842 | -5.61067 | 29199 ft | 385 kts | 28° |
| 2026-04-24 16:25 | 54.60098 | -5.58645 | 28705 ft | 384 kts | 34° |
| 2026-04-24 16:25 | 54.62191 | -5.55895 | 28233 ft | 381 kts | 39° |
| 2026-04-24 16:26 | 54.66165 | -5.49937 | 27284 ft | 376 kts | 41° |
| 2026-04-24 16:26 | 54.68105 | -5.46935 | 26808 ft | 374 kts | 42° |
| 2026-04-24 16:26 | 54.71932 | -5.41038 | 25883 ft | 368 kts | 42° |
| 2026-04-24 16:27 | 54.73825 | -5.38138 | 25425 ft | 366 kts | 41° |
| 2026-04-24 16:27 | 54.75707 | -5.35260 | 24969 ft | 363 kts | 41° |
| 2026-04-24 16:27 | 54.77614 | -5.32344 | 24507 ft | 360 kts | 42° |
| 2026-04-24 16:27 | 54.79454 | -5.29530 | 24058 ft | 357 kts | 42° |
| 2026-04-24 16:28 | 54.81323 | -5.26671 | 23598 ft | 355 kts | 42° |
| 2026-04-24 16:28 | 54.83151 | -5.23872 | 23150 ft | 352 kts | 42° |
| 2026-04-24 16:28 | 54.86794 | -5.18336 | 22257 ft | 346 kts | 41° |
| 2026-04-24 16:29 | 54.88673 | -5.15818 | 21823 ft | 344 kts | 35° |
| 2026-04-24 16:29 | 54.90709 | -5.13679 | 21376 ft | 342 kts | 30° |
| 2026-04-24 16:29 | 54.94917 | -5.10030 | 20515 ft | 336 kts | 26° |
| 2026-04-24 16:30 | 54.99072 | -5.06556 | 19660 ft | 331 kts | 27° |
| 2026-04-24 16:30 | 55.01136 | -5.04799 | 19241 ft | 328 kts | 27° |
| 2026-04-24 16:30 | 55.03164 | -5.03055 | 18831 ft | 325 kts | 27° |
| 2026-04-24 16:31 | 55.05165 | -5.01323 | 18418 ft | 322 kts | 27° |
| 2026-04-24 16:31 | 55.07134 | -4.99612 | 18020 ft | 320 kts | 27° |
| 2026-04-24 16:31 | 55.09098 | -4.97841 | 17603 ft | 317 kts | 31° |
| 2026-04-24 16:31 | 55.10865 | -4.95550 | 17282 ft | 312 kts | 47° |
| 2026-04-24 16:32 | 55.12054 | -4.92512 | 17252 ft | 302 kts | 64° |
| 2026-04-24 16:32 | 55.12912 | -4.89131 | 17249 ft | 306 kts | 66° |
| 2026-04-24 16:32 | 55.13743 | -4.85684 | 17248 ft | 313 kts | 66° |
| 2026-04-24 16:32 | 55.14605 | -4.82156 | 17254 ft | 317 kts | 66° |
| 2026-04-24 16:33 | 55.15477 | -4.78636 | 17247 ft | 315 kts | 66° |
| 2026-04-24 16:33 | 55.16341 | -4.75160 | 17246 ft | 313 kts | 66° |
| 2026-04-24 16:33 | 55.17201 | -4.71694 | 17248 ft | 313 kts | 66° |
| 2026-04-24 16:33 | 55.18076 | -4.68158 | 17254 ft | 314 kts | 66° |
| 2026-04-24 16:34 | 55.18938 | -4.64663 | 17248 ft | 315 kts | 65° |
| 2026-04-24 16:34 | 55.19794 | -4.61188 | 17246 ft | 314 kts | 66° |
| 2026-04-24 16:34 | 55.20665 | -4.57648 | 17248 ft | 314 kts | 66° |
| 2026-04-24 16:34 | 55.21518 | -4.54174 | 17253 ft | 314 kts | 66° |
| 2026-04-24 16:35 | 55.22378 | -4.50663 | 17250 ft | 314 kts | 66° |
| 2026-04-24 16:35 | 55.23237 | -4.47160 | 17251 ft | 315 kts | 65° |
| 2026-04-24 16:35 | 55.24099 | -4.43640 | 17254 ft | 316 kts | 65° |
| 2026-04-24 16:35 | 55.24969 | -4.40081 | 17255 ft | 316 kts | 65° |
| 2026-04-24 16:36 | 55.25827 | -4.36556 | 17255 ft | 316 kts | 65° |
| 2026-04-24 16:36 | 55.26692 | -4.32999 | 17250 ft | 316 kts | 66° |
| 2026-04-24 16:36 | 55.27550 | -4.29465 | 17248 ft | 317 kts | 66° |
| 2026-04-24 16:36 | 55.28408 | -4.25926 | 17248 ft | 317 kts | 66° |
| 2026-04-24 16:37 | 55.29267 | -4.22376 | 17248 ft | 317 kts | 66° |
| 2026-04-24 16:37 | 55.30126 | -4.18812 | 17251 ft | 316 kts | 66° |
| 2026-04-24 16:37 | 55.31171 | -4.15517 | 17012 ft | 311 kts | 48° |
| 2026-04-24 16:37 | 55.32883 | -4.13236 | 16531 ft | 309 kts | 25° |
| 2026-04-24 16:38 | 55.34845 | -4.11851 | 16167 ft | 305 kts | 19° |
| 2026-04-24 16:38 | 55.36839 | -4.10635 | 15745 ft | 304 kts | 19° |
| 2026-04-24 16:38 | 55.38809 | -4.09355 | 15322 ft | 303 kts | 20° |
| 2026-04-24 16:38 | 55.40746 | -4.07976 | 14933 ft | 301 kts | 21° |
| 2026-04-24 16:39 | 55.42665 | -4.06531 | 14549 ft | 298 kts | 22° |
| 2026-04-24 16:39 | 55.44556 | -4.05083 | 14143 ft | 297 kts | 22° |
| 2026-04-24 16:39 | 55.46423 | -4.03653 | 13761 ft | 295 kts | 22° |
| 2026-04-24 16:39 | 55.48303 | -4.02218 | 13351 ft | 294 kts | 22° |
| 2026-04-24 16:40 | 55.50157 | -4.00806 | 12976 ft | 291 kts | 21° |
| 2026-04-24 16:40 | 55.51997 | -3.99402 | 12709 ft | 285 kts | 21° |
| 2026-04-24 16:40 | 55.53815 | -3.98013 | 12361 ft | 282 kts | 22° |
| 2026-04-24 16:40 | 55.55584 | -3.96661 | 12010 ft | 280 kts | 22° |
| 2026-04-24 16:41 | 55.57380 | -3.95287 | 11637 ft | 279 kts | 21° |
| 2026-04-24 16:41 | 55.59125 | -3.93948 | 11265 ft | 277 kts | 22° |
| 2026-04-24 16:41 | 55.60902 | -3.92584 | 10887 ft | 276 kts | 21° |
| 2026-04-24 16:41 | 55.62650 | -3.91240 | 10533 ft | 274 kts | 21° |
| 2026-04-24 16:42 | 55.64367 | -3.89921 | 10173 ft | 273 kts | 21° |
| 2026-04-24 16:42 | 55.66110 | -3.88580 | 9811 ft | 271 kts | 21° |
| 2026-04-24 16:42 | 55.67823 | -3.87260 | 9434 ft | 270 kts | 21° |
| 2026-04-24 16:42 | 55.69553 | -3.85926 | 9069 ft | 269 kts | 21° |
| 2026-04-24 16:43 | 55.71253 | -3.84613 | 8801 ft | 264 kts | 21° |
| 2026-04-24 16:43 | 55.72890 | -3.83346 | 8673 ft | 254 kts | 22° |
| 2026-04-24 16:43 | 55.74471 | -3.82123 | 8547 ft | 245 kts | 21° |
| 2026-04-24 16:43 | 55.76012 | -3.80932 | 8334 ft | 237 kts | 22° |
| 2026-04-24 16:44 | 55.77488 | -3.79788 | 8041 ft | 230 kts | 22° |
| 2026-04-24 16:44 | 55.78973 | -3.78637 | 7550 ft | 233 kts | 21° |
| 2026-04-24 16:44 | 55.80439 | -3.77488 | 7137 ft | 232 kts | 25° |
| 2026-04-24 16:44 | 55.81723 | -3.75781 | 6666 ft | 235 kts | 49° |
| 2026-04-24 16:45 | 55.82652 | -3.73407 | 6266 ft | 234 kts | 57° |
| 2026-04-24 16:45 | 55.83466 | -3.70941 | 5869 ft | 232 kts | 57° |
| 2026-04-24 16:45 | 55.84285 | -3.68500 | 5490 ft | 227 kts | 57° |
| 2026-04-24 16:45 | 55.85107 | -3.66127 | 5025 ft | 227 kts | 56° |
| 2026-04-24 16:46 | 55.85928 | -3.63754 | 4540 ft | 226 kts | 57° |
| 2026-04-24 16:46 | 55.86734 | -3.61404 | 4022 ft | 220 kts | 57° |
| 2026-04-24 16:46 | 55.87522 | -3.59108 | 3304 ft | 217 kts | 57° |
| 2026-04-24 16:46 | 55.88281 | -3.56894 | 3001 ft | 206 kts | 57° |
| 2026-04-24 16:47 | 55.89019 | -3.54744 | 2587 ft | 203 kts | 57° |
| 2026-04-24 16:47 | 55.89749 | -3.52611 | 1776 ft | 209 kts | 57° |
| 2026-04-24 16:47 | 55.90468 | -3.50511 | 1568 ft | 182 kts | 58° |
| 2026-04-24 16:47 | 55.91086 | -3.48700 | 1410 ft | 162 kts | 57° |
| 2026-04-24 16:48 | 55.91642 | -3.47071 | 1291 ft | 146 kts | 58° |
| 2026-04-24 16:48 | 55.92173 | -3.45518 | 1045 ft | 150 kts | 57° |
| 2026-04-24 16:48 | 55.92707 | -3.43953 | 821 ft | 145 kts | 57° |
| 2026-04-24 16:48 | 55.93227 | -3.42429 | 634 ft | 144 kts | 58° |
| 2026-04-24 16:49 | 55.93739 | -3.40922 | 438 ft | 143 kts | 57° |
| 2026-04-24 16:49 | 55.94264 | -3.39420 | 235 ft | 142 kts | 57° |
| 2026-04-24 16:49 | 55.94766 | -3.37940 | 114 ft | 135 kts | 58° |
| 2026-04-24 16:49 | 55.95272 | -3.36438 | 293 ft | 150 kts | 59° |
| 2026-04-24 16:50 | 55.95589 | -3.35441 | 835 ft | 142 kts | 59° |
| 2026-04-24 16:50 | 55.96377 | -3.33072 | 949 ft | 177 kts | 58° |
| 2026-04-24 16:50 | 55.97038 | -3.31309 | 1048 ft | 166 kts | 55° |
| 2026-04-24 16:50 | 55.97666 | -3.29605 | 1028 ft | 163 kts | 58° |
| 2026-04-24 16:51 | 55.98264 | -3.27767 | 1137 ft | 180 kts | 59° |
| 2026-04-24 16:51 | 55.98891 | -3.25832 | 1700 ft | 185 kts | 59° |
| 2026-04-24 16:51 | 55.99554 | -3.23826 | 2296 ft | 199 kts | 58° |
| 2026-04-24 16:51 | 56.00249 | -3.21776 | 3084 ft | 189 kts | 57° |
| 2026-04-24 16:52 | 56.00960 | -3.19662 | 3221 ft | 217 kts | 54° |
| 2026-04-24 16:52 | 56.02149 | -3.18050 | 3368 ft | 216 kts | 14° |
| 2026-04-24 16:52 | 56.03600 | -3.17890 | 3421 ft | 212 kts | 351° |
| 2026-04-24 16:52 | 56.05065 | -3.18483 | 2986 ft | 217 kts | 341° |
| 2026-04-24 16:53 | 56.06426 | -3.19514 | 2755 ft | 211 kts | 330° |
| 2026-04-24 16:53 | 56.07460 | -3.21256 | 2553 ft | 201 kts | 301° |
| 2026-04-24 16:53 | 56.07797 | -3.23566 | 2595 ft | 191 kts | 262° |
| 2026-04-24 16:53 | 56.07399 | -3.25803 | 2848 ft | 195 kts | 250° |
| 2026-04-24 16:54 | 56.06869 | -3.28147 | 3102 ft | 210 kts | 249° |
| 2026-04-24 16:54 | 56.06325 | -3.30607 | 3354 ft | 213 kts | 250° |
| 2026-04-24 16:54 | 56.05782 | -3.33083 | 3604 ft | 215 kts | 250° |
| 2026-04-24 16:54 | 56.05235 | -3.35572 | 3852 ft | 217 kts | 250° |
| 2026-04-24 16:55 | 56.04677 | -3.38092 | 3959 ft | 220 kts | 250° |
| 2026-04-24 16:55 | 56.04115 | -3.40617 | 3964 ft | 218 kts | 250° |
| 2026-04-24 16:55 | 56.03548 | -3.43147 | 3965 ft | 217 kts | 250° |
| 2026-04-24 16:55 | 56.02989 | -3.45638 | 3966 ft | 218 kts | 250° |
| 2026-04-24 16:56 | 56.02422 | -3.48154 | 3966 ft | 218 kts | 250° |
| 2026-04-24 16:56 | 56.01858 | -3.50651 | 3964 ft | 218 kts | 250° |
| 2026-04-24 16:56 | 56.01294 | -3.53158 | 3964 ft | 217 kts | 250° |
| 2026-04-24 16:56 | 56.00734 | -3.55664 | 3965 ft | 218 kts | 250° |
| 2026-04-24 16:57 | 56.00171 | -3.58196 | 3964 ft | 218 kts | 250° |
| 2026-04-24 16:57 | 55.99618 | -3.60689 | 3959 ft | 218 kts | 250° |
| 2026-04-24 16:57 | 55.99057 | -3.63217 | 3962 ft | 219 kts | 250° |
| 2026-04-24 16:57 | 55.98496 | -3.65734 | 3961 ft | 219 kts | 249° |
| 2026-04-24 16:58 | 55.97924 | -3.68280 | 3960 ft | 220 kts | 246° |
| 2026-04-24 16:58 | 55.97007 | -3.70402 | 3960 ft | 221 kts | 217° |
| 2026-04-24 16:58 | 55.95674 | -3.71815 | 3966 ft | 223 kts | 208° |
| 2026-04-24 16:58 | 55.94318 | -3.73098 | 3960 ft | 222 kts | 209° |
| 2026-04-24 16:59 | 55.92952 | -3.74398 | 3961 ft | 222 kts | 209° |
| 2026-04-24 16:59 | 55.91500 | -3.75292 | 3953 ft | 224 kts | 184° |
| 2026-04-24 16:59 | 55.88425 | -3.74435 | 3960 ft | 225 kts | 169° |
| 2026-04-24 17:00 | 55.86889 | -3.73851 | 3957 ft | 225 kts | 165° |
| 2026-04-24 17:00 | 55.84455 | -3.70564 | 3969 ft | 224 kts | 117° |
| 2026-04-24 17:00 | 55.84212 | -3.67863 | 3946 ft | 226 kts | 79° |
| 2026-04-24 17:01 | 55.85971 | -3.63321 | 3359 ft | 226 kts | 51° |
| 2026-04-24 17:01 | 55.86851 | -3.61027 | 3044 ft | 221 kts | 57° |
| 2026-04-24 17:02 | 55.88428 | -3.56454 | 2441 ft | 213 kts | 57° |
| 2026-04-24 17:02 | 55.89197 | -3.54220 | 2148 ft | 210 kts | 57° |
| 2026-04-24 17:02 | 55.89934 | -3.52066 | 1867 ft | 196 kts | 57° |
| 2026-04-24 17:02 | 55.90605 | -3.50106 | 1618 ft | 180 kts | 57° |
| 2026-04-24 17:03 | 55.91788 | -3.46637 | 1105 ft | 152 kts | 58° |
| 2026-04-24 17:03 | 55.92319 | -3.45091 | 928 ft | 142 kts | 57° |
| 2026-04-24 17:03 | 55.92845 | -3.43567 | 789 ft | 147 kts | 58° |
| 2026-04-24 17:04 | 55.93363 | -3.42046 | 586 ft | 140 kts | 57° |
| 2026-04-24 17:04 | 55.94344 | -3.39173 | 196 ft | 135 kts | 58° |
| 2026-04-24 17:04 | 55.94817 | -3.37779 | 104 ft | 122 kts | 58° |
| 2026-04-24 17:05 | 55.95159 | -3.36788 | 104 ft | 66 kts | 58° |
| 2026-04-24 17:05 | 55.95306 | -3.36358 | 106 ft | 27 kts | 59° |
| 2026-04-24 17:05 | 55.95491 | -3.35802 | 105 ft | 25 kts | 59° |
| 2026-04-24 17:06 | 55.95564 | -3.35562 | 105 ft | 15 kts | 83° |
| 2026-04-24 17:06 | 55.95437 | -3.35408 | 106 ft | 6 kts | 222° |
| 2026-04-24 17:06 | 55.95397 | -3.35503 | 106 ft | 12 kts | 238° |
| 2026-04-24 17:07 | 55.95368 | -3.35588 | 106 ft | 11 kts | 238° |
| 2026-04-24 17:07 | 55.95314 | -3.35746 | 106 ft | 10 kts | 238° |
| 2026-04-24 17:07 | 55.95222 | -3.36021 | 107 ft | 16 kts | 239° |
| 2026-04-24 17:08 | 55.95104 | -3.36370 | 106 ft | 15 kts | 238° |
| 2026-04-24 17:08 | 55.95047 | -3.36538 | 106 ft | 15 kts | 238° |
| 2026-04-24 17:08 | 55.94991 | -3.36702 | 105 ft | 15 kts | 238° |
| 2026-04-24 17:09 | 55.94857 | -3.36781 | 104 ft | 10 kts | 174° |
| 2026-04-24 17:09 | 55.94736 | -3.36737 | 105 ft | 7 kts | 175° |
| 2026-04-24 17:10 | 55.94685 | -3.36736 | 105 ft | 9 kts | 179° |
| 2026-04-24 17:10 | 55.94574 | -3.36714 | 106 ft | 2 kts | 98° |
| 2026-04-24 17:11 | 55.94573 | -3.36655 | 108 ft | 1 kts | 89° |
| 2026-04-24 17:12 | 55.94574 | -3.36628 | 109 ft | 0 kts | 89° |